Ursa Minor — ICGH — position and weather

sailwx.info

Track history (hours):
 
Tides and Currents Weather Stations Pressure Air Temp Water Temp Dewpoint Dewpoint Depression Visibility Wind Speed Wind Dir Waves Ship Positions

Ursa Minor

Last reported at 2017-Feb-23 04:21 UTC. Time now 2017-Feb-24 03:45 UTC.
Position N 43°19' E 010°09'.

Length 205 m; draft 8.3 m.

Type: Ship. MMSI: 247082300.

Date/timePositionNaut miles runAvg speedWind from/ knotsBaromVisibWave heightAir tempDewpointWater temp
2017-Feb-23 04:21N 43°19' E 010°09'1012.0
2017-Feb-23 03:33N 43°27' E 010°03'1212.0
2017-Feb-23 02:33N 43°36' E 009°53'1212.4
2017-Feb-23 01:33N 43°46' E 009°42'1212.1
2017-Feb-23 00:33N 43°55' E 009°30'1212.3
2017-Feb-22 23:33N 44°04' E 009°18'1212.1
2017-Feb-22 22:33N 44°12' E 009°07'1111.1
2017-Feb-22 21:33N 44°21' E 008°57'5 4.9
2017-Feb-22 20:33N 44°24' E 008°52'0 0.0
2017-Feb-22 19:32N 44°24' E 008°52'0 0.0
2017-Feb-22 18:32N 44°24' E 008°52'0 0.0
2017-Feb-22 17:32N 44°24' E 008°52'0 0.0
2017-Feb-22 16:25N 44°24' E 008°52'0 0.0
2017-Feb-22 15:31N 44°24' E 008°52'0 0.0
2017-Feb-22 14:28N 44°24' E 008°52'0 0.0
2017-Feb-22 13:28N 44°24' E 008°52'0 0.0
2017-Feb-22 12:31N 44°24' E 008°52'0 0.0
2017-Feb-22 11:31N 44°24' E 008°52'0 0.0
2017-Feb-22 10:31N 44°24' E 008°52'0 0.0
2017-Feb-22 09:31N 44°24' E 008°52'0 0.0
2017-Feb-22 08:33N 44°24' E 008°52'0 0.0
2017-Feb-22 07:33N 44°24' E 008°52'0 0.2
2017-Feb-22 06:33N 44°24' E 008°52'1 1.5
2017-Feb-22 05:33N 44°24' E 008°54'7 7.2
2017-Feb-22 04:33N 44°18' E 009°01'8 8.2
2017-Feb-22 03:33N 44°13' E 009°09'8 8.1
2017-Feb-22 02:33N 44°06' E 009°16'8 8.0
2017-Feb-22 01:33N 44°00' E 009°23'8 7.7
2017-Feb-22 00:33N 43°55' E 009°30'8 7.8
2017-Feb-21 23:33N 43°49' E 009°38'8 7.8
2017-Feb-21 22:33N 43°43' E 009°45'8 7.6
2017-Feb-21 21:33N 43°37' E 009°52'8 7.7
2017-Feb-21 20:33N 43°31' E 009°59'8 7.7
2017-Feb-21 19:33N 43°25' E 010°05'8 8.0
2017-Feb-21 18:33N 43°18' E 010°10'8 8.0
2017-Feb-21 17:33N 43°11' E 010°16'367 8.3
2017-Feb-19 21:31N 38°32' E 015°31'8 8.8
2017-Feb-19 20:34N 38°25' E 015°36'8 8.5
2017-Feb-19 19:34N 38°17' E 015°41'6 6.5
2017-Feb-19 18:34N 38°12' E 015°37'6 5.9
2017-Feb-19 17:34N 38°06' E 015°36'7 6.8
2017-Feb-19 16:33N 37°59' E 015°36'6 5.8
2017-Feb-19 15:33N 37°53' E 015°37'7 7.0
2017-Feb-19 14:30N 37°53' E 015°46'170 4.5
2017-Feb-18 00:28N 40°30' E 017°10'0 0.0
2017-Feb-17 23:31N 40°30' E 017°10'0 0.0
2017-Feb-17 22:26N 40°30' E 017°10'0 0.0
2017-Feb-17 21:32N 40°30' E 017°10'0 0.0
2017-Feb-17 20:32N 40°30' E 017°10'0 0.0
2017-Feb-17 19:32N 40°30' E 017°10'0 0.0
2017-Feb-17 18:32N 40°30' E 017°10'0 0.0
2017-Feb-17 17:32N 40°30' E 017°10'0 0.0
2017-Feb-17 16:32N 40°30' E 017°10'1 1.4
2017-Feb-17 15:33N 40°30' E 017°08'4 0.4
2017-Feb-17 05:33N 40°27' E 017°11'0 0.0
2017-Feb-17 04:33N 40°27' E 017°11'0 0.0
2017-Feb-17 03:33N 40°27' E 017°11'0 0.1
2017-Feb-17 02:33N 40°27' E 017°11'0 0.0
2017-Feb-17 01:33N 40°27' E 017°11'0 0.0
2017-Feb-17 00:33N 40°27' E 017°11'0 0.1
2017-Feb-16 23:33N 40°27' E 017°11'0 0.0
2017-Feb-16 22:33N 40°27' E 017°11'0 0.0
2017-Feb-16 21:33N 40°27' E 017°11'0 0.1
2017-Feb-16 20:33N 40°27' E 017°11'0 0.1
2017-Feb-16 19:33N 40°27' E 017°11'0 0.0
2017-Feb-16 18:33N 40°27' E 017°11'0 0.0
2017-Feb-16 17:32N 40°27' E 017°11'0 0.0
2017-Feb-16 16:33N 40°27' E 017°11'0 0.2
2017-Feb-16 15:33N 40°27' E 017°11'2 2.0
2017-Feb-16 14:33N 40°25' E 017°10'8 7.8
2017-Feb-16 13:33N 40°17' E 017°08'8 8.4
2017-Feb-16 12:33N 40°09' E 017°09'150 7.1
2017-Feb-15 15:26N 37°54' E 015°47'8 7.9
2017-Feb-15 14:21N 37°59' E 015°38'7 8.6
2017-Feb-15 13:33N 38°05' E 015°35'1010.3
2017-Feb-15 12:34N 38°15' E 015°38'6 6.3
2017-Feb-15 11:32N 38°21' E 015°37'7 7.3
2017-Feb-15 10:33N 38°28' E 015°34'7 7.1
2017-Feb-15 09:32N 38°34' E 015°29'7 7.2
2017-Feb-15 08:31N 38°40' E 015°24'10 7.7
2017-Feb-15 07:12N 38°49' E 015°17'365 7.7
2017-Feb-13 07:30N 43°27' E 010°03'6 6.4
2017-Feb-13 06:33N 43°32' E 009°58'6 6.1
2017-Feb-13 05:33N 43°37' E 009°53'8 8.5
2017-Feb-13 04:33N 43°43' E 009°45'  
Track history (hours):
 
Tides and Currents Weather Stations Pressure Air Temp Water Temp Dewpoint Dewpoint Depression Visibility Wind Speed Wind Dir Waves Ship Positions

Ursa Minor

Last reported at 2017-Feb-23 04:21 UTC. Time now 2017-Feb-24 03:45 UTC.
Position N 43°19' E 010°09'.

Length 205 m; draft 8.3 m.

Type: Ship. MMSI: 247082300.

Date/timePositionNaut miles runAvg speedWind from/ knotsBaromVisibWave heightAir tempDewpointWater temp
2017-Feb-23 04:21N 43°19' E 010°09'1012.0
2017-Feb-23 03:33N 43°27' E 010°03'1212.0
2017-Feb-23 02:33N 43°36' E 009°53'1212.4
2017-Feb-23 01:33N 43°46' E 009°42'1212.1
2017-Feb-23 00:33N 43°55' E 009°30'1212.3
2017-Feb-22 23:33N 44°04' E 009°18'1212.1
2017-Feb-22 22:33N 44°12' E 009°07'1111.1
2017-Feb-22 21:33N 44°21' E 008°57'5 4.9
2017-Feb-22 20:33N 44°24' E 008°52'0 0.0
2017-Feb-22 19:32N 44°24' E 008°52'0 0.0
2017-Feb-22 18:32N 44°24' E 008°52'0 0.0
2017-Feb-22 17:32N 44°24' E 008°52'0 0.0
2017-Feb-22 16:25N 44°24' E 008°52'0 0.0
2017-Feb-22 15:31N 44°24' E 008°52'0 0.0
2017-Feb-22 14:28N 44°24' E 008°52'0 0.0
2017-Feb-22 13:28N 44°24' E 008°52'0 0.0
2017-Feb-22 12:31N 44°24' E 008°52'0 0.0
2017-Feb-22 11:31N 44°24' E 008°52'0 0.0
2017-Feb-22 10:31N 44°24' E 008°52'0 0.0
2017-Feb-22 09:31N 44°24' E 008°52'0 0.0
2017-Feb-22 08:33N 44°24' E 008°52'0 0.0
2017-Feb-22 07:33N 44°24' E 008°52'0 0.2
2017-Feb-22 06:33N 44°24' E 008°52'1 1.5
2017-Feb-22 05:33N 44°24' E 008°54'7 7.2
2017-Feb-22 04:33N 44°18' E 009°01'8 8.2
2017-Feb-22 03:33N 44°13' E 009°09'8 8.1
2017-Feb-22 02:33N 44°06' E 009°16'8 8.0
2017-Feb-22 01:33N 44°00' E 009°23'8 7.7
2017-Feb-22 00:33N 43°55' E 009°30'8 7.8
2017-Feb-21 23:33N 43°49' E 009°38'8 7.8
2017-Feb-21 22:33N 43°43' E 009°45'8 7.6
2017-Feb-21 21:33N 43°37' E 009°52'8 7.7
2017-Feb-21 20:33N 43°31' E 009°59'8 7.7
2017-Feb-21 19:33N 43°25' E 010°05'8 8.0
2017-Feb-21 18:33N 43°18' E 010°10'8 8.0
2017-Feb-21 17:33N 43°11' E 010°16'367 8.3
2017-Feb-19 21:31N 38°32' E 015°31'8 8.8
2017-Feb-19 20:34N 38°25' E 015°36'8 8.5
2017-Feb-19 19:34N 38°17' E 015°41'6 6.5
2017-Feb-19 18:34N 38°12' E 015°37'6 5.9
2017-Feb-19 17:34N 38°06' E 015°36'7 6.8
2017-Feb-19 16:33N 37°59' E 015°36'6 5.8
2017-Feb-19 15:33N 37°53' E 015°37'7 7.0
2017-Feb-19 14:30N 37°53' E 015°46'170 4.5
2017-Feb-18 00:28N 40°30' E 017°10'0 0.0
2017-Feb-17 23:31N 40°30' E 017°10'0 0.0
2017-Feb-17 22:26N 40°30' E 017°10'0 0.0
2017-Feb-17 21:32N 40°30' E 017°10'0 0.0
2017-Feb-17 20:32N 40°30' E 017°10'0 0.0
2017-Feb-17 19:32N 40°30' E 017°10'0 0.0
2017-Feb-17 18:32N 40°30' E 017°10'0 0.0
2017-Feb-17 17:32N 40°30' E 017°10'0 0.0
2017-Feb-17 16:32N 40°30' E 017°10'1 1.4
2017-Feb-17 15:33N 40°30' E 017°08'4 0.4
2017-Feb-17 05:33N 40°27' E 017°11'0 0.0
2017-Feb-17 04:33N 40°27' E 017°11'0 0.0
2017-Feb-17 03:33N 40°27' E 017°11'0 0.1
2017-Feb-17 02:33N 40°27' E 017°11'0 0.0
2017-Feb-17 01:33N 40°27' E 017°11'0 0.0
2017-Feb-17 00:33N 40°27' E 017°11'0 0.1
2017-Feb-16 23:33N 40°27' E 017°11'0 0.0
2017-Feb-16 22:33N 40°27' E 017°11'0 0.0
2017-Feb-16 21:33N 40°27' E 017°11'0 0.1
2017-Feb-16 20:33N 40°27' E 017°11'0 0.1
2017-Feb-16 19:33N 40°27' E 017°11'0 0.0
2017-Feb-16 18:33N 40°27' E 017°11'0 0.0
2017-Feb-16 17:32N 40°27' E 017°11'0 0.0
2017-Feb-16 16:33N 40°27' E 017°11'0 0.2
2017-Feb-16 15:33N 40°27' E 017°11'2 2.0
2017-Feb-16 14:33N 40°25' E 017°10'8 7.8
2017-Feb-16 13:33N 40°17' E 017°08'8 8.4
2017-Feb-16 12:33N 40°09' E 017°09'150 7.1
2017-Feb-15 15:26N 37°54' E 015°47'8 7.9
2017-Feb-15 14:21N 37°59' E 015°38'7 8.6
2017-Feb-15 13:33N 38°05' E 015°35'1010.3
2017-Feb-15 12:34N 38°15' E 015°38'6 6.3
2017-Feb-15 11:32N 38°21' E 015°37'7 7.3
2017-Feb-15 10:33N 38°28' E 015°34'7 7.1
2017-Feb-15 09:32N 38°34' E 015°29'7 7.2
2017-Feb-15 08:31N 38°40' E 015°24'10 7.7
2017-Feb-15 07:12N 38°49' E 015°17'365 7.7
2017-Feb-13 07:30N 43°27' E 010°03'6 6.4
2017-Feb-13 06:33N 43°32' E 009°58'6 6.1
2017-Feb-13 05:33N 43°37' E 009°53'8 8.5
2017-Feb-13 04:33N 43°43' E 009°45'  

Dump ship's entire track history